sensor_id;sensor_type;location;lat;lon;timestamp;P1;durP1;ratioP1;P2;durP2;ratioP2
5026;SDS011;2532;52.480;13.354;2022-10-13T00:00:44;12.70;;;7.10;;
5026;SDS011;2532;52.480;13.354;2022-10-13T00:03:11;13.10;;;7.10;;
5026;SDS011;2532;52.480;13.354;2022-10-13T00:05:39;11.57;;;7.17;;
5026;SDS011;2532;52.480;13.354;2022-10-13T00:08:06;13.53;;;7.93;;
5026;SDS011;2532;52.480;13.354;2022-10-13T00:10:34;15.90;;;7.50;;
5026;SDS011;2532;52.480;13.354;2022-10-13T00:13:02;17.93;;;8.03;;
5026;SDS011;2532;52.480;13.354;2022-10-13T00:15:29;14.43;;;7.60;;
5026;SDS011;2532;52.480;13.354;2022-10-13T00:17:56;21.67;;;7.20;;
5026;SDS011;2532;52.480;13.354;2022-10-13T00:20:23;11.73;;;7.40;;
5026;SDS011;2532;52.480;13.354;2022-10-13T00:22:50;17.17;;;8.40;;
5026;SDS011;2532;52.480;13.354;2022-10-13T00:25:17;13.93;;;6.73;;
5026;SDS011;2532;52.480;13.354;2022-10-13T00:27:43;16.63;;;8.10;;
5026;SDS011;2532;52.480;13.354;2022-10-13T00:30:12;13.90;;;7.30;;
5026;SDS011;2532;52.480;13.354;2022-10-13T00:32:38;13.30;;;7.80;;
5026;SDS011;2532;52.480;13.354;2022-10-13T00:35:05;15.43;;;7.40;;
5026;SDS011;2532;52.480;13.354;2022-10-13T00:37:32;14.60;;;7.10;;
5026;SDS011;2532;52.480;13.354;2022-10-13T00:39:59;14.87;;;7.90;;
5026;SDS011;2532;52.480;13.354;2022-10-13T00:42:26;14.57;;;7.50;;
5026;SDS011;2532;52.480;13.354;2022-10-13T00:45:03;15.93;;;7.10;;
5026;SDS011;2532;52.480;13.354;2022-10-13T00:47:34;16.47;;;7.40;;
5026;SDS011;2532;52.480;13.354;2022-10-13T00:50:05;13.70;;;8.00;;
5026;SDS011;2532;52.480;13.354;2022-10-13T00:52:35;13.57;;;7.10;;
5026;SDS011;2532;52.480;13.354;2022-10-13T00:55:04;15.43;;;7.57;;
5026;SDS011;2532;52.480;13.354;2022-10-13T00:57:33;20.03;;;7.30;;
5026;SDS011;2532;52.480;13.354;2022-10-13T01:00:01;13.13;;;7.90;;
5026;SDS011;2532;52.480;13.354;2022-10-13T01:02:30;11.40;;;6.67;;
5026;SDS011;2532;52.480;13.354;2022-10-13T01:05:02;13.63;;;7.40;;
5026;SDS011;2532;52.480;13.354;2022-10-13T01:07:30;13.10;;;7.57;;
5026;SDS011;2532;52.480;13.354;2022-10-13T01:09:59;15.87;;;7.33;;
5026;SDS011;2532;52.480;13.354;2022-10-13T01:12:30;16.80;;;7.63;;
5026;SDS011;2532;52.480;13.354;2022-10-13T01:15:10;14.10;;;7.07;;
5026;SDS011;2532;52.480;13.354;2022-10-13T01:17:47;14.90;;;7.93;;
5026;SDS011;2532;52.480;13.354;2022-10-13T01:23:29;10.80;;;6.63;;
5026;SDS011;2532;52.480;13.354;2022-10-13T01:35:26;18.83;;;7.67;;
5026;SDS011;2532;52.480;13.354;2022-10-13T01:38:04;11.30;;;7.33;;
5026;SDS011;2532;52.480;13.354;2022-10-13T01:40:37;15.60;;;7.10;;
5026;SDS011;2532;52.480;13.354;2022-10-13T01:43:09;23.13;;;8.80;;
5026;SDS011;2532;52.480;13.354;2022-10-13T01:45:45;10.90;;;7.27;;
5026;SDS011;2532;52.480;13.354;2022-10-13T01:48:16;15.40;;;6.87;;
5026;SDS011;2532;52.480;13.354;2022-10-13T01:50:49;13.03;;;7.50;;
5026;SDS011;2532;52.480;13.354;2022-10-13T01:53:18;13.57;;;7.07;;
5026;SDS011;2532;52.480;13.354;2022-10-13T01:55:50;15.67;;;8.37;;
5026;SDS011;2532;52.480;13.354;2022-10-13T01:58:18;15.73;;;8.33;;
5026;SDS011;2532;52.480;13.354;2022-10-13T02:00:52;15.50;;;7.97;;
5026;SDS011;2532;52.480;13.354;2022-10-13T02:03:35;21.10;;;8.30;;
5026;SDS011;2532;52.480;13.354;2022-10-13T02:06:12;15.80;;;7.90;;
5026;SDS011;2532;52.480;13.354;2022-10-13T02:08:49;14.07;;;7.40;;
5026;SDS011;2532;52.480;13.354;2022-10-13T02:11:21;15.70;;;7.10;;
5026;SDS011;2532;52.480;13.354;2022-10-13T02:13:50;12.63;;;7.30;;
5026;SDS011;2532;52.480;13.354;2022-10-13T02:16:23;12.93;;;7.40;;
5026;SDS011;2532;52.480;13.354;2022-10-13T02:18:52;17.57;;;7.83;;
5026;SDS011;2532;52.480;13.354;2022-10-13T02:21:27;12.40;;;6.67;;
5026;SDS011;2532;52.480;13.354;2022-10-13T02:23:55;20.10;;;7.17;;
5026;SDS011;2532;52.480;13.354;2022-10-13T02:26:23;14.83;;;7.50;;
5026;SDS011;2532;52.480;13.354;2022-10-13T02:28:50;20.17;;;8.60;;
5026;SDS011;2532;52.480;13.354;2022-10-13T02:31:17;16.63;;;7.73;;
5026;SDS011;2532;52.480;13.354;2022-10-13T02:33:45;13.97;;;7.40;;
5026;SDS011;2532;52.480;13.354;2022-10-13T02:36:12;16.23;;;7.57;;
5026;SDS011;2532;52.480;13.354;2022-10-13T02:38:39;11.43;;;6.60;;
5026;SDS011;2532;52.480;13.354;2022-10-13T02:41:06;18.93;;;8.10;;
5026;SDS011;2532;52.480;13.354;2022-10-13T02:43:33;16.60;;;7.43;;
5026;SDS011;2532;52.480;13.354;2022-10-13T02:46:01;19.93;;;8.33;;
5026;SDS011;2532;52.480;13.354;2022-10-13T02:48:28;13.97;;;7.60;;
5026;SDS011;2532;52.480;13.354;2022-10-13T02:50:56;13.70;;;7.60;;
5026;SDS011;2532;52.480;13.354;2022-10-13T02:53:23;10.10;;;7.33;;
5026;SDS011;2532;52.480;13.354;2022-10-13T02:55:50;17.57;;;8.10;;
5026;SDS011;2532;52.480;13.354;2022-10-13T02:58:17;14.80;;;7.40;;
5026;SDS011;2532;52.480;13.354;2022-10-13T03:00:44;14.13;;;7.90;;
5026;SDS011;2532;52.480;13.354;2022-10-13T03:03:11;12.90;;;7.33;;
5026;SDS011;2532;52.480;13.354;2022-10-13T03:05:37;15.03;;;8.33;;
5026;SDS011;2532;52.480;13.354;2022-10-13T03:08:06;13.10;;;8.37;;
5026;SDS011;2532;52.480;13.354;2022-10-13T03:10:32;17.23;;;7.73;;
5026;SDS011;2532;52.480;13.354;2022-10-13T03:12:59;13.53;;;7.47;;
5026;SDS011;2532;52.480;13.354;2022-10-13T03:15:26;14.47;;;7.57;;
5026;SDS011;2532;52.480;13.354;2022-10-13T03:17:53;10.90;;;6.90;;
5026;SDS011;2532;52.480;13.354;2022-10-13T03:20:20;18.63;;;8.43;;
5026;SDS011;2532;52.480;13.354;2022-10-13T03:22:47;12.73;;;7.70;;
5026;SDS011;2532;52.480;13.354;2022-10-13T03:25:15;21.40;;;8.40;;
5026;SDS011;2532;52.480;13.354;2022-10-13T03:27:42;12.50;;;6.80;;
5026;SDS011;2532;52.480;13.354;2022-10-13T03:30:09;11.60;;;7.60;;
5026;SDS011;2532;52.480;13.354;2022-10-13T03:32:36;12.57;;;7.90;;
5026;SDS011;2532;52.480;13.354;2022-10-13T03:35:04;13.60;;;7.77;;
5026;SDS011;2532;52.480;13.354;2022-10-13T03:37:32;17.93;;;7.77;;
5026;SDS011;2532;52.480;13.354;2022-10-13T03:39:59;11.93;;;7.53;;
5026;SDS011;2532;52.480;13.354;2022-10-13T03:42:27;13.83;;;8.10;;
5026;SDS011;2532;52.480;13.354;2022-10-13T03:44:53;18.70;;;8.40;;
5026;SDS011;2532;52.480;13.354;2022-10-13T03:47:20;19.20;;;9.43;;
5026;SDS011;2532;52.480;13.354;2022-10-13T03:49:47;15.77;;;9.07;;
5026;SDS011;2532;52.480;13.354;2022-10-13T03:52:14;17.87;;;8.80;;
5026;SDS011;2532;52.480;13.354;2022-10-13T03:54:41;11.63;;;7.70;;
5026;SDS011;2532;52.480;13.354;2022-10-13T03:57:07;12.03;;;7.23;;
5026;SDS011;2532;52.480;13.354;2022-10-13T03:59:37;15.30;;;8.27;;
5026;SDS011;2532;52.480;13.354;2022-10-13T04:02:04;12.67;;;8.60;;
5026;SDS011;2532;52.480;13.354;2022-10-13T04:04:32;21.50;;;9.70;;
5026;SDS011;2532;52.480;13.354;2022-10-13T04:06:59;16.90;;;8.50;;
5026;SDS011;2532;52.480;13.354;2022-10-13T04:09:26;17.37;;;8.73;;
5026;SDS011;2532;52.480;13.354;2022-10-13T04:11:53;14.63;;;9.10;;
5026;SDS011;2532;52.480;13.354;2022-10-13T04:14:20;16.90;;;8.07;;
5026;SDS011;2532;52.480;13.354;2022-10-13T04:16:48;15.33;;;8.37;;
5026;SDS011;2532;52.480;13.354;2022-10-13T04:19:14;18.13;;;9.07;;
5026;SDS011;2532;52.480;13.354;2022-10-13T04:21:41;15.43;;;8.50;;
5026;SDS011;2532;52.480;13.354;2022-10-13T04:24:09;16.60;;;8.30;;
5026;SDS011;2532;52.480;13.354;2022-10-13T04:26:37;14.63;;;9.03;;
5026;SDS011;2532;52.480;13.354;2022-10-13T04:29:06;14.30;;;9.17;;
5026;SDS011;2532;52.480;13.354;2022-10-13T04:31:34;19.43;;;8.07;;
5026;SDS011;2532;52.480;13.354;2022-10-13T04:34:02;16.03;;;8.80;;
5026;SDS011;2532;52.480;13.354;2022-10-13T04:36:29;18.13;;;9.63;;
5026;SDS011;2532;52.480;13.354;2022-10-13T04:38:56;14.10;;;8.27;;
5026;SDS011;2532;52.480;13.354;2022-10-13T04:41:23;17.17;;;8.53;;
5026;SDS011;2532;52.480;13.354;2022-10-13T04:43:50;14.17;;;8.10;;
5026;SDS011;2532;52.480;13.354;2022-10-13T04:46:19;17.47;;;9.10;;
5026;SDS011;2532;52.480;13.354;2022-10-13T04:48:47;20.90;;;9.07;;
5026;SDS011;2532;52.480;13.354;2022-10-13T04:51:16;17.03;;;7.90;;
5026;SDS011;2532;52.480;13.354;2022-10-13T04:53:45;16.50;;;10.03;;
5026;SDS011;2532;52.480;13.354;2022-10-13T04:56:13;20.83;;;10.13;;
5026;SDS011;2532;52.480;13.354;2022-10-13T04:58:42;18.43;;;8.83;;
5026;SDS011;2532;52.480;13.354;2022-10-13T05:01:11;17.10;;;9.17;;
5026;SDS011;2532;52.480;13.354;2022-10-13T05:03:40;15.37;;;8.80;;
5026;SDS011;2532;52.480;13.354;2022-10-13T05:06:12;14.27;;;9.20;;
5026;SDS011;2532;52.480;13.354;2022-10-13T05:08:40;16.40;;;9.13;;
5026;SDS011;2532;52.480;13.354;2022-10-13T05:11:07;19.90;;;10.03;;
5026;SDS011;2532;52.480;13.354;2022-10-13T05:13:34;18.20;;;9.50;;
5026;SDS011;2532;52.480;13.354;2022-10-13T05:16:04;16.03;;;9.60;;
5026;SDS011;2532;52.480;13.354;2022-10-13T05:18:32;16.47;;;8.30;;
5026;SDS011;2532;52.480;13.354;2022-10-13T05:21:04;17.30;;;9.60;;
5026;SDS011;2532;52.480;13.354;2022-10-13T05:23:32;17.17;;;9.20;;
5026;SDS011;2532;52.480;13.354;2022-10-13T05:26:01;19.53;;;10.20;;
5026;SDS011;2532;52.480;13.354;2022-10-13T05:28:28;15.23;;;9.57;;
5026;SDS011;2532;52.480;13.354;2022-10-13T05:30:55;14.03;;;9.47;;
5026;SDS011;2532;52.480;13.354;2022-10-13T05:33:22;17.20;;;9.03;;
5026;SDS011;2532;52.480;13.354;2022-10-13T05:35:49;22.43;;;9.63;;
5026;SDS011;2532;52.480;13.354;2022-10-13T05:38:16;20.97;;;9.50;;
5026;SDS011;2532;52.480;13.354;2022-10-13T05:40:43;17.70;;;9.93;;
5026;SDS011;2532;52.480;13.354;2022-10-13T05:43:11;18.20;;;9.97;;
5026;SDS011;2532;52.480;13.354;2022-10-13T05:45:37;15.13;;;9.53;;
5026;SDS011;2532;52.480;13.354;2022-10-13T05:48:05;19.43;;;9.30;;
5026;SDS011;2532;52.480;13.354;2022-10-13T05:50:32;19.50;;;10.27;;
5026;SDS011;2532;52.480;13.354;2022-10-13T05:52:59;17.30;;;9.63;;
5026;SDS011;2532;52.480;13.354;2022-10-13T05:55:26;25.83;;;13.70;;
5026;SDS011;2532;52.480;13.354;2022-10-13T05:57:53;18.10;;;10.10;;
5026;SDS011;2532;52.480;13.354;2022-10-13T06:00:22;20.03;;;11.40;;
5026;SDS011;2532;52.480;13.354;2022-10-13T06:02:50;19.37;;;11.30;;
5026;SDS011;2532;52.480;13.354;2022-10-13T06:05:23;19.93;;;10.70;;
5026;SDS011;2532;52.480;13.354;2022-10-13T06:07:52;18.70;;;11.23;;
5026;SDS011;2532;52.480;13.354;2022-10-13T06:10:20;18.73;;;10.73;;
5026;SDS011;2532;52.480;13.354;2022-10-13T06:12:47;18.43;;;10.40;;
5026;SDS011;2532;52.480;13.354;2022-10-13T06:15:14;16.77;;;10.30;;
5026;SDS011;2532;52.480;13.354;2022-10-13T06:17:42;19.27;;;10.87;;
5026;SDS011;2532;52.480;13.354;2022-10-13T06:20:10;17.87;;;9.90;;
5026;SDS011;2532;52.480;13.354;2022-10-13T06:22:40;20.77;;;10.60;;
5026;SDS011;2532;52.480;13.354;2022-10-13T06:25:07;17.63;;;10.57;;
5026;SDS011;2532;52.480;13.354;2022-10-13T06:27:34;23.10;;;11.33;;
5026;SDS011;2532;52.480;13.354;2022-10-13T06:30:01;22.30;;;11.47;;
5026;SDS011;2532;52.480;13.354;2022-10-13T06:32:28;21.23;;;11.33;;
5026;SDS011;2532;52.480;13.354;2022-10-13T06:34:56;25.33;;;11.03;;
5026;SDS011;2532;52.480;13.354;2022-10-13T06:37:23;27.27;;;16.83;;
5026;SDS011;2532;52.480;13.354;2022-10-13T06:39:50;17.70;;;11.23;;
5026;SDS011;2532;52.480;13.354;2022-10-13T06:42:17;23.57;;;12.90;;
5026;SDS011;2532;52.480;13.354;2022-10-13T06:44:44;18.40;;;12.90;;
5026;SDS011;2532;52.480;13.354;2022-10-13T06:47:10;27.07;;;11.80;;
5026;SDS011;2532;52.480;13.354;2022-10-13T06:49:37;16.60;;;11.57;;
5026;SDS011;2532;52.480;13.354;2022-10-13T06:52:06;21.40;;;11.90;;
5026;SDS011;2532;52.480;13.354;2022-10-13T06:54:32;19.70;;;12.07;;
5026;SDS011;2532;52.480;13.354;2022-10-13T06:56:59;24.87;;;11.60;;
5026;SDS011;2532;52.480;13.354;2022-10-13T06:59:26;23.27;;;12.53;;
5026;SDS011;2532;52.480;13.354;2022-10-13T07:01:53;22.53;;;13.30;;
5026;SDS011;2532;52.480;13.354;2022-10-13T07:04:20;26.60;;;12.70;;
5026;SDS011;2532;52.480;13.354;2022-10-13T07:06:47;19.73;;;11.67;;
5026;SDS011;2532;52.480;13.354;2022-10-13T07:09:16;18.30;;;11.97;;
5026;SDS011;2532;52.480;13.354;2022-10-13T07:11:44;23.23;;;12.50;;
5026;SDS011;2532;52.480;13.354;2022-10-13T07:14:11;20.43;;;13.83;;
5026;SDS011;2532;52.480;13.354;2022-10-13T07:16:38;19.73;;;12.33;;
5026;SDS011;2532;52.480;13.354;2022-10-13T07:19:05;20.20;;;12.63;;
5026;SDS011;2532;52.480;13.354;2022-10-13T07:21:32;27.60;;;13.37;;
5026;SDS011;2532;52.480;13.354;2022-10-13T07:24:00;23.40;;;12.37;;
5026;SDS011;2532;52.480;13.354;2022-10-13T07:26:29;32.33;;;13.17;;
5026;SDS011;2532;52.480;13.354;2022-10-13T07:28:58;27.60;;;12.87;;
5026;SDS011;2532;52.480;13.354;2022-10-13T07:31:25;24.50;;;13.53;;
5026;SDS011;2532;52.480;13.354;2022-10-13T07:33:52;24.17;;;13.90;;
5026;SDS011;2532;52.480;13.354;2022-10-13T07:36:21;31.17;;;15.20;;
5026;SDS011;2532;52.480;13.354;2022-10-13T07:38:48;23.60;;;13.33;;
5026;SDS011;2532;52.480;13.354;2022-10-13T07:41:15;21.80;;;13.43;;
5026;SDS011;2532;52.480;13.354;2022-10-13T07:43:43;27.50;;;14.03;;
5026;SDS011;2532;52.480;13.354;2022-10-13T07:46:12;28.50;;;13.77;;
5026;SDS011;2532;52.480;13.354;2022-10-13T07:48:39;28.50;;;16.00;;
5026;SDS011;2532;52.480;13.354;2022-10-13T07:51:08;22.60;;;13.90;;
5026;SDS011;2532;52.480;13.354;2022-10-13T07:53:36;28.30;;;14.23;;
5026;SDS011;2532;52.480;13.354;2022-10-13T07:56:05;20.00;;;13.93;;
5026;SDS011;2532;52.480;13.354;2022-10-13T07:58:35;20.93;;;13.47;;
5026;SDS011;2532;52.480;13.354;2022-10-13T08:01:05;18.17;;;13.33;;
5026;SDS011;2532;52.480;13.354;2022-10-13T08:03:32;26.67;;;14.20;;
5026;SDS011;2532;52.480;13.354;2022-10-13T08:06:00;27.33;;;13.97;;
5026;SDS011;2532;52.480;13.354;2022-10-13T08:08:28;25.93;;;12.73;;
5026;SDS011;2532;52.480;13.354;2022-10-13T08:10:59;23.70;;;14.03;;
5026;SDS011;2532;52.480;13.354;2022-10-13T08:13:26;19.83;;;13.93;;
5026;SDS011;2532;52.480;13.354;2022-10-13T08:15:53;22.33;;;13.67;;
5026;SDS011;2532;52.480;13.354;2022-10-13T08:18:21;25.87;;;14.17;;
5026;SDS011;2532;52.480;13.354;2022-10-13T08:20:48;22.47;;;13.20;;
5026;SDS011;2532;52.480;13.354;2022-10-13T08:23:15;20.70;;;13.20;;
5026;SDS011;2532;52.480;13.354;2022-10-13T08:25:42;18.97;;;13.50;;
5026;SDS011;2532;52.480;13.354;2022-10-13T08:28:12;30.63;;;14.60;;
5026;SDS011;2532;52.480;13.354;2022-10-13T08:30:42;23.27;;;15.20;;
5026;SDS011;2532;52.480;13.354;2022-10-13T08:33:09;23.13;;;13.73;;
5026;SDS011;2532;52.480;13.354;2022-10-13T08:35:37;24.13;;;14.40;;
5026;SDS011;2532;52.480;13.354;2022-10-13T08:38:06;23.37;;;14.07;;
5026;SDS011;2532;52.480;13.354;2022-10-13T08:40:33;23.80;;;13.87;;
5026;SDS011;2532;52.480;13.354;2022-10-13T08:43:04;19.40;;;14.40;;
5026;SDS011;2532;52.480;13.354;2022-10-13T08:45:32;25.73;;;14.13;;
5026;SDS011;2532;52.480;13.354;2022-10-13T08:48:00;28.27;;;12.03;;
5026;SDS011;2532;52.480;13.354;2022-10-13T08:50:31;24.83;;;13.67;;
5026;SDS011;2532;52.480;13.354;2022-10-13T08:53:03;22.10;;;13.00;;
5026;SDS011;2532;52.480;13.354;2022-10-13T08:55:33;25.00;;;14.20;;
5026;SDS011;2532;52.480;13.354;2022-10-13T08:58:08;29.20;;;15.87;;
5026;SDS011;2532;52.480;13.354;2022-10-13T09:00:37;20.53;;;13.50;;
5026;SDS011;2532;52.480;13.354;2022-10-13T09:03:22;23.20;;;13.90;;
5026;SDS011;2532;52.480;13.354;2022-10-13T09:05:57;24.03;;;14.43;;
5026;SDS011;2532;52.480;13.354;2022-10-13T09:08:37;20.73;;;12.90;;
5026;SDS011;2532;52.480;13.354;2022-10-13T09:11:08;19.87;;;12.90;;
5026;SDS011;2532;52.480;13.354;2022-10-13T09:13:36;27.97;;;14.53;;
5026;SDS011;2532;52.480;13.354;2022-10-13T09:16:03;24.83;;;14.17;;
5026;SDS011;2532;52.480;13.354;2022-10-13T09:18:33;31.63;;;18.90;;
5026;SDS011;2532;52.480;13.354;2022-10-13T09:21:14;27.10;;;17.13;;
5026;SDS011;2532;52.480;13.354;2022-10-13T09:23:45;24.13;;;12.97;;
5026;SDS011;2532;52.480;13.354;2022-10-13T09:26:17;27.50;;;15.17;;
5026;SDS011;2532;52.480;13.354;2022-10-13T09:28:46;24.50;;;13.83;;
5026;SDS011;2532;52.480;13.354;2022-10-13T09:31:15;24.53;;;14.00;;
5026;SDS011;2532;52.480;13.354;2022-10-13T09:33:43;30.40;;;16.03;;
5026;SDS011;2532;52.480;13.354;2022-10-13T09:36:12;24.00;;;14.10;;
5026;SDS011;2532;52.480;13.354;2022-10-13T09:38:41;25.73;;;14.70;;
5026;SDS011;2532;52.480;13.354;2022-10-13T09:41:12;26.60;;;15.10;;
5026;SDS011;2532;52.480;13.354;2022-10-13T09:43:42;22.13;;;13.47;;
5026;SDS011;2532;52.480;13.354;2022-10-13T09:46:25;21.73;;;13.93;;
5026;SDS011;2532;52.480;13.354;2022-10-13T09:48:55;20.63;;;13.40;;
5026;SDS011;2532;52.480;13.354;2022-10-13T09:51:29;20.53;;;15.23;;
5026;SDS011;2532;52.480;13.354;2022-10-13T09:54:00;31.50;;;14.93;;
5026;SDS011;2532;52.480;13.354;2022-10-13T09:56:29;23.43;;;15.97;;
5026;SDS011;2532;52.480;13.354;2022-10-13T09:59:06;28.43;;;17.97;;
5026;SDS011;2532;52.480;13.354;2022-10-13T10:01:42;17.87;;;13.30;;
5026;SDS011;2532;52.480;13.354;2022-10-13T10:04:12;22.90;;;14.53;;
5026;SDS011;2532;52.480;13.354;2022-10-13T10:06:41;22.13;;;14.13;;
5026;SDS011;2532;52.480;13.354;2022-10-13T10:09:16;21.87;;;15.07;;
5026;SDS011;2532;52.480;13.354;2022-10-13T10:11:59;26.87;;;17.90;;
5026;SDS011;2532;52.480;13.354;2022-10-13T10:14:29;28.30;;;15.37;;
5026;SDS011;2532;52.480;13.354;2022-10-13T10:16:59;24.10;;;15.30;;
5026;SDS011;2532;52.480;13.354;2022-10-13T10:19:35;26.60;;;15.47;;
5026;SDS011;2532;52.480;13.354;2022-10-13T10:22:13;25.30;;;15.10;;
5026;SDS011;2532;52.480;13.354;2022-10-13T10:24:47;25.10;;;14.87;;
5026;SDS011;2532;52.480;13.354;2022-10-13T10:27:23;29.50;;;16.03;;
5026;SDS011;2532;52.480;13.354;2022-10-13T10:29:55;23.60;;;14.57;;
5026;SDS011;2532;52.480;13.354;2022-10-13T10:32:26;27.13;;;15.67;;
5026;SDS011;2532;52.480;13.354;2022-10-13T10:34:59;25.00;;;15.50;;
5026;SDS011;2532;52.480;13.354;2022-10-13T10:37:39;61.73;;;41.87;;
5026;SDS011;2532;52.480;13.354;2022-10-13T10:40:24;29.67;;;15.83;;
5026;SDS011;2532;52.480;13.354;2022-10-13T10:43:14;23.90;;;14.13;;
5026;SDS011;2532;52.480;13.354;2022-10-13T10:45:56;36.53;;;16.70;;
5026;SDS011;2532;52.480;13.354;2022-10-13T10:48:25;25.70;;;15.40;;
5026;SDS011;2532;52.480;13.354;2022-10-13T10:50:55;25.67;;;14.60;;
5026;SDS011;2532;52.480;13.354;2022-10-13T10:53:28;30.23;;;15.70;;
5026;SDS011;2532;52.480;13.354;2022-10-13T10:56:02;21.90;;;15.00;;
5026;SDS011;2532;52.480;13.354;2022-10-13T10:58:38;21.17;;;14.13;;
5026;SDS011;2532;52.480;13.354;2022-10-13T11:01:16;23.97;;;13.73;;
5026;SDS011;2532;52.480;13.354;2022-10-13T11:04:09;23.40;;;14.03;;
5026;SDS011;2532;52.480;13.354;2022-10-13T11:06:56;25.87;;;14.03;;
5026;SDS011;2532;52.480;13.354;2022-10-13T11:12:44;24.20;;;14.50;;
5026;SDS011;2532;52.480;13.354;2022-10-13T11:15:18;23.30;;;14.70;;
5026;SDS011;2532;52.480;13.354;2022-10-13T11:17:49;26.17;;;14.27;;
5026;SDS011;2532;52.480;13.354;2022-10-13T11:23:28;25.87;;;13.30;;
5026;SDS011;2532;52.480;13.354;2022-10-13T11:28:57;24.63;;;13.50;;
5026;SDS011;2532;52.480;13.354;2022-10-13T11:31:30;21.20;;;13.90;;
5026;SDS011;2532;52.480;13.354;2022-10-13T11:34:24;21.60;;;14.43;;
5026;SDS011;2532;52.480;13.354;2022-10-13T11:36:54;26.93;;;13.20;;
5026;SDS011;2532;52.480;13.354;2022-10-13T11:42:25;23.57;;;12.93;;
5026;SDS011;2532;52.480;13.354;2022-10-13T11:45:02;17.33;;;12.60;;
5026;SDS011;2532;52.480;13.354;2022-10-13T11:50:28;19.60;;;12.10;;
5026;SDS011;2532;52.480;13.354;2022-10-13T11:53:09;18.57;;;12.87;;
5026;SDS011;2532;52.480;13.354;2022-10-13T11:55:46;19.73;;;11.60;;
5026;SDS011;2532;52.480;13.354;2022-10-13T11:58:16;23.53;;;13.30;;
5026;SDS011;2532;52.480;13.354;2022-10-13T12:00:53;20.77;;;12.00;;
5026;SDS011;2532;52.480;13.354;2022-10-13T12:03:24;22.10;;;12.10;;
5026;SDS011;2532;52.480;13.354;2022-10-13T12:05:54;17.97;;;12.30;;
5026;SDS011;2532;52.480;13.354;2022-10-13T12:08:24;23.00;;;11.67;;
5026;SDS011;2532;52.480;13.354;2022-10-13T12:10:54;17.30;;;10.40;;
5026;SDS011;2532;52.480;13.354;2022-10-13T12:13:24;18.80;;;11.57;;
5026;SDS011;2532;52.480;13.354;2022-10-13T12:15:57;17.40;;;11.10;;
5026;SDS011;2532;52.480;13.354;2022-10-13T12:18:32;15.77;;;10.10;;
5026;SDS011;2532;52.480;13.354;2022-10-13T12:21:02;19.10;;;11.50;;
5026;SDS011;2532;52.480;13.354;2022-10-13T12:23:34;20.23;;;11.07;;
5026;SDS011;2532;52.480;13.354;2022-10-13T12:26:01;18.00;;;10.80;;
5026;SDS011;2532;52.480;13.354;2022-10-13T12:28:29;18.70;;;10.00;;
5026;SDS011;2532;52.480;13.354;2022-10-13T12:31:17;17.00;;;9.87;;
5026;SDS011;2532;52.480;13.354;2022-10-13T12:33:51;17.13;;;10.90;;
5026;SDS011;2532;52.480;13.354;2022-10-13T12:36:20;13.40;;;9.07;;
5026;SDS011;2532;52.480;13.354;2022-10-13T12:38:53;19.17;;;9.40;;
5026;SDS011;2532;52.480;13.354;2022-10-13T12:43:49;19.40;;;11.23;;
5026;SDS011;2532;52.480;13.354;2022-10-13T12:49:04;14.30;;;10.10;;
5026;SDS011;2532;52.480;13.354;2022-10-13T12:51:32;15.43;;;9.90;;
5026;SDS011;2532;52.480;13.354;2022-10-13T12:54:04;17.97;;;9.80;;
5026;SDS011;2532;52.480;13.354;2022-10-13T12:56:33;15.90;;;10.20;;
5026;SDS011;2532;52.480;13.354;2022-10-13T12:59:00;14.10;;;9.07;;
5026;SDS011;2532;52.480;13.354;2022-10-13T13:01:28;14.77;;;9.30;;
5026;SDS011;2532;52.480;13.354;2022-10-13T13:03:57;15.33;;;9.27;;
5026;SDS011;2532;52.480;13.354;2022-10-13T13:06:35;14.53;;;9.20;;
5026;SDS011;2532;52.480;13.354;2022-10-13T13:09:06;17.47;;;10.13;;
5026;SDS011;2532;52.480;13.354;2022-10-13T13:11:40;15.77;;;9.17;;
5026;SDS011;2532;52.480;13.354;2022-10-13T13:17:07;16.00;;;10.43;;
5026;SDS011;2532;52.480;13.354;2022-10-13T13:19:36;13.27;;;9.20;;
5026;SDS011;2532;52.480;13.354;2022-10-13T13:22:06;14.47;;;9.03;;
5026;SDS011;2532;52.480;13.354;2022-10-13T13:24:33;16.10;;;9.90;;
5026;SDS011;2532;52.480;13.354;2022-10-13T13:27:06;14.90;;;9.80;;
5026;SDS011;2532;52.480;13.354;2022-10-13T13:29:40;20.73;;;10.00;;
5026;SDS011;2532;52.480;13.354;2022-10-13T13:32:08;13.73;;;9.57;;
5026;SDS011;2532;52.480;13.354;2022-10-13T13:34:37;14.20;;;9.97;;
5026;SDS011;2532;52.480;13.354;2022-10-13T13:37:07;19.07;;;10.83;;
5026;SDS011;2532;52.480;13.354;2022-10-13T13:39:38;15.50;;;9.23;;
5026;SDS011;2532;52.480;13.354;2022-10-13T13:42:04;15.60;;;10.53;;
5026;SDS011;2532;52.480;13.354;2022-10-13T13:44:33;17.83;;;10.60;;
5026;SDS011;2532;52.480;13.354;2022-10-13T13:47:00;19.40;;;9.90;;
5026;SDS011;2532;52.480;13.354;2022-10-13T13:49:27;16.70;;;10.20;;
5026;SDS011;2532;52.480;13.354;2022-10-13T13:51:54;18.27;;;10.40;;
5026;SDS011;2532;52.480;13.354;2022-10-13T13:54:22;26.73;;;11.20;;
5026;SDS011;2532;52.480;13.354;2022-10-13T13:56:49;20.00;;;10.33;;
5026;SDS011;2532;52.480;13.354;2022-10-13T13:59:15;21.33;;;10.20;;
5026;SDS011;2532;52.480;13.354;2022-10-13T14:01:42;16.70;;;11.07;;
5026;SDS011;2532;52.480;13.354;2022-10-13T14:04:09;15.83;;;9.60;;
5026;SDS011;2532;52.480;13.354;2022-10-13T14:06:36;16.27;;;11.17;;
5026;SDS011;2532;52.480;13.354;2022-10-13T14:09:02;16.83;;;10.77;;
5026;SDS011;2532;52.480;13.354;2022-10-13T14:11:31;17.00;;;10.70;;
5026;SDS011;2532;52.480;13.354;2022-10-13T14:13:57;15.37;;;10.70;;
5026;SDS011;2532;52.480;13.354;2022-10-13T14:16:26;13.90;;;10.40;;
5026;SDS011;2532;52.480;13.354;2022-10-13T14:18:54;21.53;;;9.20;;
5026;SDS011;2532;52.480;13.354;2022-10-13T14:21:22;22.20;;;10.70;;
5026;SDS011;2532;52.480;13.354;2022-10-13T14:23:48;21.40;;;11.07;;
5026;SDS011;2532;52.480;13.354;2022-10-13T14:26:15;22.83;;;9.13;;
5026;SDS011;2532;52.480;13.354;2022-10-13T14:28:43;13.50;;;9.50;;
5026;SDS011;2532;52.480;13.354;2022-10-13T14:31:10;16.50;;;10.03;;
5026;SDS011;2532;52.480;13.354;2022-10-13T14:33:37;20.40;;;10.80;;
5026;SDS011;2532;52.480;13.354;2022-10-13T14:36:05;18.70;;;9.83;;
5026;SDS011;2532;52.480;13.354;2022-10-13T14:38:33;20.93;;;10.17;;
5026;SDS011;2532;52.480;13.354;2022-10-13T14:41:00;17.03;;;10.10;;
5026;SDS011;2532;52.480;13.354;2022-10-13T14:43:28;15.47;;;9.73;;
5026;SDS011;2532;52.480;13.354;2022-10-13T14:45:57;23.77;;;10.60;;
5026;SDS011;2532;52.480;13.354;2022-10-13T14:48:26;20.23;;;10.53;;
5026;SDS011;2532;52.480;13.354;2022-10-13T14:50:55;20.83;;;10.43;;
5026;SDS011;2532;52.480;13.354;2022-10-13T14:53:22;19.83;;;10.90;;
5026;SDS011;2532;52.480;13.354;2022-10-13T14:55:50;19.37;;;10.13;;
5026;SDS011;2532;52.480;13.354;2022-10-13T14:58:17;17.43;;;9.20;;
5026;SDS011;2532;52.480;13.354;2022-10-13T15:00:44;15.50;;;10.20;;
5026;SDS011;2532;52.480;13.354;2022-10-13T15:03:12;22.23;;;9.20;;
5026;SDS011;2532;52.480;13.354;2022-10-13T15:05:39;17.80;;;9.43;;
5026;SDS011;2532;52.480;13.354;2022-10-13T15:08:06;13.97;;;9.87;;
5026;SDS011;2532;52.480;13.354;2022-10-13T15:10:33;16.20;;;10.60;;
5026;SDS011;2532;52.480;13.354;2022-10-13T15:13:00;18.33;;;10.90;;
5026;SDS011;2532;52.480;13.354;2022-10-13T15:15:26;17.70;;;9.17;;
5026;SDS011;2532;52.480;13.354;2022-10-13T15:17:53;18.10;;;10.70;;
5026;SDS011;2532;52.480;13.354;2022-10-13T15:20:21;22.60;;;10.30;;
5026;SDS011;2532;52.480;13.354;2022-10-13T15:22:48;17.47;;;10.67;;
5026;SDS011;2532;52.480;13.354;2022-10-13T15:25:17;14.37;;;8.73;;
5026;SDS011;2532;52.480;13.354;2022-10-13T15:27:44;13.90;;;10.13;;
5026;SDS011;2532;52.480;13.354;2022-10-13T15:30:11;13.90;;;9.47;;